sensor_id;sensor_type;location;lat;lon;timestamp;noise_LAeq;noise_LA_min;noise_LA_max;noise_LA01;noise_LA95
69616;Laerm;56822;52.516;4.708;2022-08-21T00:00:01;37.76;35.38;40.67;;
69616;Laerm;56822;52.516;4.708;2022-08-21T00:00:13;38.75;35.83;43.19;;
69616;Laerm;56822;52.516;4.708;2022-08-21T00:00:25;38.23;34.42;41.85;;
69616;Laerm;56822;52.516;4.708;2022-08-21T00:00:36;35.08;32.79;37.71;;
69616;Laerm;56822;52.516;4.708;2022-08-21T00:00:47;37.05;34.04;40.54;;
69616;Laerm;56822;52.516;4.708;2022-08-21T00:00:58;38.70;35.60;43.61;;
69616;Laerm;56822;52.516;4.708;2022-08-21T00:01:12;40.08;35.75;44.07;;
69616;Laerm;56822;52.516;4.708;2022-08-21T00:01:25;39.78;36.26;43.67;;
69616;Laerm;56822;52.516;4.708;2022-08-21T00:01:35;41.50;36.98;47.07;;
69616;Laerm;56822;52.516;4.708;2022-08-21T00:01:46;47.95;41.81;55.06;;
69616;Laerm;56822;52.516;4.708;2022-08-21T00:01:56;49.94;44.36;54.24;;
69616;Laerm;56822;52.516;4.708;2022-08-21T00:02:16;47.61;42.46;54.94;;
69616;Laerm;56822;52.516;4.708;2022-08-21T00:02:27;43.81;38.71;52.13;;
69616;Laerm;56822;52.516;4.708;2022-08-21T00:02:43;39.61;37.17;41.72;;
69616;Laerm;56822;52.516;4.708;2022-08-21T00:02:56;38.37;35.46;43.09;;
69616;Laerm;56822;52.516;4.708;2022-08-21T00:03:09;37.48;34.61;41.60;;
69616;Laerm;56822;52.516;4.708;2022-08-21T00:03:19;38.15;35.40;41.36;;
69616;Laerm;56822;52.516;4.708;2022-08-21T00:03:30;37.64;34.14;40.85;;
69616;Laerm;56822;52.516;4.708;2022-08-21T00:03:40;35.11;32.32;37.80;;
69616;Laerm;56822;52.516;4.708;2022-08-21T00:03:50;35.79;32.43;39.18;;
69616;Laerm;56822;52.516;4.708;2022-08-21T00:04:07;39.33;36.11;41.75;;
69616;Laerm;56822;52.516;4.708;2022-08-21T00:04:17;38.73;35.61;41.54;;
69616;Laerm;56822;52.516;4.708;2022-08-21T00:04:28;36.93;34.60;40.20;;
69616;Laerm;56822;52.516;4.708;2022-08-21T00:04:40;35.54;32.98;38.38;;
69616;Laerm;56822;52.516;4.708;2022-08-21T00:04:50;36.55;33.06;39.39;;
69616;Laerm;56822;52.516;4.708;2022-08-21T00:05:01;37.18;34.60;39.32;;
69616;Laerm;56822;52.516;4.708;2022-08-21T00:05:11;37.83;35.29;40.40;;
69616;Laerm;56822;52.516;4.708;2022-08-21T00:05:21;38.82;35.76;41.91;;
69616;Laerm;56822;52.516;4.708;2022-08-21T00:05:33;38.77;36.07;42.24;;
69616;Laerm;56822;52.516;4.708;2022-08-21T00:05:45;37.37;34.75;43.72;;
69616;Laerm;56822;52.516;4.708;2022-08-21T00:05:55;37.58;35.23;40.56;;
69616;Laerm;56822;52.516;4.708;2022-08-21T00:06:05;40.79;37.33;42.86;;
69616;Laerm;56822;52.516;4.708;2022-08-21T00:06:16;40.71;37.76;42.64;;
69616;Laerm;56822;52.516;4.708;2022-08-21T00:06:26;39.23;36.92;41.30;;
69616;Laerm;56822;52.516;4.708;2022-08-21T00:06:36;39.15;36.43;41.59;;
69616;Laerm;56822;52.516;4.708;2022-08-21T00:06:47;38.85;35.69;41.71;;
69616;Laerm;56822;52.516;4.708;2022-08-21T00:06:57;40.08;36.78;42.85;;
69616;Laerm;56822;52.516;4.708;2022-08-21T00:07:08;41.02;38.17;43.53;;
69616;Laerm;56822;52.516;4.708;2022-08-21T00:07:19;39.62;36.95;41.81;;
69616;Laerm;56822;52.516;4.708;2022-08-21T00:07:29;38.34;35.02;40.42;;
69616;Laerm;56822;52.516;4.708;2022-08-21T00:07:40;39.56;37.10;42.43;;
69616;Laerm;56822;52.516;4.708;2022-08-21T00:07:50;39.53;37.36;42.09;;
69616;Laerm;56822;52.516;4.708;2022-08-21T00:08:00;39.82;37.31;42.34;;
69616;Laerm;56822;52.516;4.708;2022-08-21T00:08:11;40.12;37.53;43.00;;
69616;Laerm;56822;52.516;4.708;2022-08-21T00:08:21;39.87;37.37;43.55;;
69616;Laerm;56822;52.516;4.708;2022-08-21T00:08:31;38.98;36.32;41.75;;
69616;Laerm;56822;52.516;4.708;2022-08-21T00:08:42;38.43;35.63;41.57;;
69616;Laerm;56822;52.516;4.708;2022-08-21T00:08:52;37.50;35.23;40.40;;
69616;Laerm;56822;52.516;4.708;2022-08-21T00:09:03;37.69;34.92;39.56;;
69616;Laerm;56822;52.516;4.708;2022-08-21T00:09:13;35.76;32.02;39.96;;
69616;Laerm;56822;52.516;4.708;2022-08-21T00:09:24;36.56;33.98;39.38;;
69616;Laerm;56822;52.516;4.708;2022-08-21T00:09:34;36.39;33.51;39.77;;
69616;Laerm;56822;52.516;4.708;2022-08-21T00:09:44;39.01;35.62;42.26;;
69616;Laerm;56822;52.516;4.708;2022-08-21T00:09:55;39.17;35.95;42.48;;
69616;Laerm;56822;52.516;4.708;2022-08-21T00:10:06;38.20;34.54;41.39;;
69616;Laerm;56822;52.516;4.708;2022-08-21T00:10:16;41.83;37.39;45.04;;
69616;Laerm;56822;52.516;4.708;2022-08-21T00:10:27;40.61;36.44;44.39;;
69616;Laerm;56822;52.516;4.708;2022-08-21T00:10:38;38.66;35.21;41.40;;
69616;Laerm;56822;52.516;4.708;2022-08-21T00:10:48;36.80;33.72;39.77;;
69616;Laerm;56822;52.516;4.708;2022-08-21T00:10:58;36.35;32.98;38.89;;
69616;Laerm;56822;52.516;4.708;2022-08-21T00:11:09;35.56;33.25;38.77;;
69616;Laerm;56822;52.516;4.708;2022-08-21T00:11:19;37.92;33.94;41.37;;
69616;Laerm;56822;52.516;4.708;2022-08-21T00:11:29;36.93;34.61;39.70;;
69616;Laerm;56822;52.516;4.708;2022-08-21T00:11:40;41.93;34.89;47.45;;
69616;Laerm;56822;52.516;4.708;2022-08-21T00:11:50;41.83;38.52;46.36;;
69616;Laerm;56822;52.516;4.708;2022-08-21T00:12:00;40.36;37.12;44.58;;
69616;Laerm;56822;52.516;4.708;2022-08-21T00:12:11;42.17;36.94;48.67;;
69616;Laerm;56822;52.516;4.708;2022-08-21T00:12:21;50.00;43.35;56.39;;
69616;Laerm;56822;52.516;4.708;2022-08-21T00:12:31;50.60;45.82;57.40;;
69616;Laerm;56822;52.516;4.708;2022-08-21T00:12:42;50.78;42.59;58.64;;
69616;Laerm;56822;52.516;4.708;2022-08-21T00:12:52;47.85;42.38;54.14;;
69616;Laerm;56822;52.516;4.708;2022-08-21T00:13:04;45.52;40.51;50.95;;
69616;Laerm;56822;52.516;4.708;2022-08-21T00:13:15;42.01;40.00;44.74;;
69616;Laerm;56822;52.516;4.708;2022-08-21T00:13:26;42.92;40.23;45.52;;
69616;Laerm;56822;52.516;4.708;2022-08-21T00:13:36;40.61;38.32;43.72;;
69616;Laerm;56822;52.516;4.708;2022-08-21T00:13:46;40.79;38.27;43.71;;
69616;Laerm;56822;52.516;4.708;2022-08-21T00:13:57;42.41;39.24;46.48;;
69616;Laerm;56822;52.516;4.708;2022-08-21T00:14:08;42.43;38.08;47.75;;
69616;Laerm;56822;52.516;4.708;2022-08-21T00:14:18;47.04;40.27;53.96;;
69616;Laerm;56822;52.516;4.708;2022-08-21T00:14:28;45.05;36.67;53.37;;
69616;Laerm;56822;52.516;4.708;2022-08-21T00:14:39;40.74;37.91;44.78;;
69616;Laerm;56822;52.516;4.708;2022-08-21T00:14:49;40.51;38.36;43.91;;
69616;Laerm;56822;52.516;4.708;2022-08-21T00:15:00;39.44;37.03;42.33;;
69616;Laerm;56822;52.516;4.708;2022-08-21T00:15:11;39.65;37.34;42.31;;
69616;Laerm;56822;52.516;4.708;2022-08-21T00:15:24;41.48;39.13;43.86;;
69616;Laerm;56822;52.516;4.708;2022-08-21T00:15:36;41.63;37.84;46.45;;
69616;Laerm;56822;52.516;4.708;2022-08-21T00:15:47;40.61;36.23;44.41;;
69616;Laerm;56822;52.516;4.708;2022-08-21T00:15:58;37.09;34.35;40.37;;
69616;Laerm;56822;52.516;4.708;2022-08-21T00:16:09;39.82;36.83;44.38;;
69616;Laerm;56822;52.516;4.708;2022-08-21T00:16:19;39.60;36.52;43.37;;
69616;Laerm;56822;52.516;4.708;2022-08-21T00:16:30;41.09;38.39;45.23;;
69616;Laerm;56822;52.516;4.708;2022-08-21T00:16:40;39.66;37.15;43.91;;
69616;Laerm;56822;52.516;4.708;2022-08-21T00:16:50;40.41;36.56;46.00;;
69616;Laerm;56822;52.516;4.708;2022-08-21T00:17:01;39.65;36.02;44.81;;
69616;Laerm;56822;52.516;4.708;2022-08-21T00:17:11;40.13;37.37;43.26;;
69616;Laerm;56822;52.516;4.708;2022-08-21T00:17:21;40.40;36.57;45.76;;
69616;Laerm;56822;52.516;4.708;2022-08-21T00:17:32;40.89;37.46;43.26;;
69616;Laerm;56822;52.516;4.708;2022-08-21T00:17:43;40.85;37.40;44.67;;
69616;Laerm;56822;52.516;4.708;2022-08-21T00:17:54;42.09;39.29;46.64;;
69616;Laerm;56822;52.516;4.708;2022-08-21T00:18:05;41.02;38.46;43.46;;
69616;Laerm;56822;52.516;4.708;2022-08-21T00:18:16;39.50;35.66;42.17;;
69616;Laerm;56822;52.516;4.708;2022-08-21T00:18:26;37.39;35.08;41.80;;
69616;Laerm;56822;52.516;4.708;2022-08-21T00:18:37;36.40;34.20;38.81;;
69616;Laerm;56822;52.516;4.708;2022-08-21T00:18:47;37.61;35.00;40.30;;
69616;Laerm;56822;52.516;4.708;2022-08-21T00:18:58;38.94;35.57;41.26;;
69616;Laerm;56822;52.516;4.708;2022-08-21T00:19:08;41.45;38.65;44.34;;
69616;Laerm;56822;52.516;4.708;2022-08-21T00:19:19;40.25;38.02;42.40;;
69616;Laerm;56822;52.516;4.708;2022-08-21T00:19:29;48.78;38.38;61.52;;
69616;Laerm;56822;52.516;4.708;2022-08-21T00:19:40;42.45;39.50;57.30;;
69616;Laerm;56822;52.516;4.708;2022-08-21T00:19:50;43.76;39.55;50.53;;
69616;Laerm;56822;52.516;4.708;2022-08-21T00:20:00;40.24;36.89;51.47;;
69616;Laerm;56822;52.516;4.708;2022-08-21T00:20:11;38.97;36.53;42.31;;
69616;Laerm;56822;52.516;4.708;2022-08-21T00:20:22;38.95;35.79;41.91;;
69616;Laerm;56822;52.516;4.708;2022-08-21T00:20:33;43.18;36.65;49.30;;
69616;Laerm;56822;52.516;4.708;2022-08-21T00:20:44;40.06;37.38;43.33;;
69616;Laerm;56822;52.516;4.708;2022-08-21T00:20:54;40.29;37.76;42.39;;
69616;Laerm;56822;52.516;4.708;2022-08-21T00:21:05;39.16;36.59;41.03;;
69616;Laerm;56822;52.516;4.708;2022-08-21T00:21:15;38.10;36.25;40.46;;
69616;Laerm;56822;52.516;4.708;2022-08-21T00:21:26;36.69;34.52;38.47;;
69616;Laerm;56822;52.516;4.708;2022-08-21T00:21:36;36.50;33.27;42.97;;
69616;Laerm;56822;52.516;4.708;2022-08-21T00:21:46;36.06;33.19;38.31;;
69616;Laerm;56822;52.516;4.708;2022-08-21T00:21:57;36.23;34.19;38.28;;
69616;Laerm;56822;52.516;4.708;2022-08-21T00:22:07;35.87;33.10;38.19;;
69616;Laerm;56822;52.516;4.708;2022-08-21T00:22:17;35.50;33.04;38.56;;
69616;Laerm;56822;52.516;4.708;2022-08-21T00:22:28;36.67;34.65;38.84;;
69616;Laerm;56822;52.516;4.708;2022-08-21T00:22:38;35.53;32.84;38.50;;
69616;Laerm;56822;52.516;4.708;2022-08-21T00:22:48;37.02;32.56;40.36;;
69616;Laerm;56822;52.516;4.708;2022-08-21T00:22:59;38.63;35.09;43.03;;
69616;Laerm;56822;52.516;4.708;2022-08-21T00:23:10;36.09;33.66;38.87;;
69616;Laerm;56822;52.516;4.708;2022-08-21T00:23:21;37.78;34.60;40.26;;
69616;Laerm;56822;52.516;4.708;2022-08-21T00:23:33;38.99;34.91;42.65;;
69616;Laerm;56822;52.516;4.708;2022-08-21T00:23:43;39.44;36.62;41.69;;
69616;Laerm;56822;52.516;4.708;2022-08-21T00:23:53;39.54;36.83;43.25;;
69616;Laerm;56822;52.516;4.708;2022-08-21T00:24:04;38.83;36.41;42.37;;
69616;Laerm;56822;52.516;4.708;2022-08-21T00:24:14;39.92;37.38;42.54;;
69616;Laerm;56822;52.516;4.708;2022-08-21T00:24:24;39.64;36.49;43.45;;
69616;Laerm;56822;52.516;4.708;2022-08-21T00:24:35;36.82;33.92;39.38;;
69616;Laerm;56822;52.516;4.708;2022-08-21T00:24:46;35.35;32.99;37.45;;
69616;Laerm;56822;52.516;4.708;2022-08-21T00:24:56;36.18;33.19;38.45;;
69616;Laerm;56822;52.516;4.708;2022-08-21T00:25:06;36.90;33.11;42.69;;
69616;Laerm;56822;52.516;4.708;2022-08-21T00:25:18;37.60;33.65;42.78;;
69616;Laerm;56822;52.516;4.708;2022-08-21T00:25:28;34.93;32.02;39.36;;
69616;Laerm;56822;52.516;4.708;2022-08-21T00:25:39;36.85;33.76;40.02;;
69616;Laerm;56822;52.516;4.708;2022-08-21T00:25:50;38.84;36.22;42.01;;
69616;Laerm;56822;52.516;4.708;2022-08-21T00:26:01;37.83;34.98;40.59;;
69616;Laerm;56822;52.516;4.708;2022-08-21T00:26:11;38.98;35.25;42.02;;
69616;Laerm;56822;52.516;4.708;2022-08-21T00:26:21;38.74;36.06;42.46;;
69616;Laerm;56822;52.516;4.708;2022-08-21T00:26:31;40.84;37.91;43.67;;
69616;Laerm;56822;52.516;4.708;2022-08-21T00:26:42;37.66;35.29;40.66;;
69616;Laerm;56822;52.516;4.708;2022-08-21T00:26:53;39.55;35.27;42.92;;
69616;Laerm;56822;52.516;4.708;2022-08-21T00:27:03;40.84;38.29;43.77;;
69616;Laerm;56822;52.516;4.708;2022-08-21T00:27:14;39.41;35.04;43.99;;
69616;Laerm;56822;52.516;4.708;2022-08-21T00:27:24;38.75;35.72;45.64;;
69616;Laerm;56822;52.516;4.708;2022-08-21T00:27:35;39.61;35.47;43.24;;
69616;Laerm;56822;52.516;4.708;2022-08-21T00:27:45;37.21;34.70;39.59;;
69616;Laerm;56822;52.516;4.708;2022-08-21T00:27:56;38.41;36.19;40.80;;
69616;Laerm;56822;52.516;4.708;2022-08-21T00:28:07;39.54;37.29;43.06;;
69616;Laerm;56822;52.516;4.708;2022-08-21T00:28:18;38.69;36.28;41.96;;
69616;Laerm;56822;52.516;4.708;2022-08-21T00:28:28;38.60;35.72;42.33;;
69616;Laerm;56822;52.516;4.708;2022-08-21T00:28:38;40.60;36.29;44.69;;
69616;Laerm;56822;52.516;4.708;2022-08-21T00:28:49;41.61;38.00;44.21;;
69616;Laerm;56822;52.516;4.708;2022-08-21T00:28:59;41.88;38.21;46.96;;
69616;Laerm;56822;52.516;4.708;2022-08-21T00:29:09;47.01;39.82;52.15;;
69616;Laerm;56822;52.516;4.708;2022-08-21T00:29:20;50.23;43.73;55.42;;
69616;Laerm;56822;52.516;4.708;2022-08-21T00:29:30;51.45;44.51;58.42;;
69616;Laerm;56822;52.516;4.708;2022-08-21T00:29:40;49.03;43.41;54.00;;
69616;Laerm;56822;52.516;4.708;2022-08-21T00:29:51;43.57;39.48;48.96;;
69616;Laerm;56822;52.516;4.708;2022-08-21T00:30:04;40.21;36.74;43.86;;
69616;Laerm;56822;52.516;4.708;2022-08-21T00:30:15;37.36;34.90;39.54;;
69616;Laerm;56822;52.516;4.708;2022-08-21T00:30:26;37.43;34.97;40.89;;
69616;Laerm;56822;52.516;4.708;2022-08-21T00:30:37;39.08;35.12;52.54;;
69616;Laerm;56822;52.516;4.708;2022-08-21T00:30:47;43.78;36.89;59.95;;
69616;Laerm;56822;52.516;4.708;2022-08-21T00:30:58;38.73;34.72;41.22;;
69616;Laerm;56822;52.516;4.708;2022-08-21T00:31:08;40.20;34.47;49.49;;
69616;Laerm;56822;52.516;4.708;2022-08-21T00:31:18;41.90;37.97;46.01;;
69616;Laerm;56822;52.516;4.708;2022-08-21T00:31:29;40.65;38.32;44.20;;
69616;Laerm;56822;52.516;4.708;2022-08-21T00:31:40;43.79;37.23;54.83;;
69616;Laerm;56822;52.516;4.708;2022-08-21T00:31:50;51.63;44.94;57.33;;
69616;Laerm;56822;52.516;4.708;2022-08-21T00:32:00;51.04;45.82;56.38;;
69616;Laerm;56822;52.516;4.708;2022-08-21T00:32:11;49.26;43.47;53.95;;
69616;Laerm;56822;52.516;4.708;2022-08-21T00:32:22;45.86;40.59;50.40;;
69616;Laerm;56822;52.516;4.708;2022-08-21T00:32:33;37.56;32.96;46.23;;
69616;Laerm;56822;52.516;4.708;2022-08-21T00:32:43;38.20;33.61;42.65;;
69616;Laerm;56822;52.516;4.708;2022-08-21T00:32:55;40.05;36.90;43.32;;
69616;Laerm;56822;52.516;4.708;2022-08-21T00:33:06;40.17;37.88;42.03;;
69616;Laerm;56822;52.516;4.708;2022-08-21T00:33:16;40.07;37.50;45.04;;
69616;Laerm;56822;52.516;4.708;2022-08-21T00:33:26;39.88;37.42;42.48;;
69616;Laerm;56822;52.516;4.708;2022-08-21T00:33:37;40.85;37.22;48.50;;
69616;Laerm;56822;52.516;4.708;2022-08-21T00:33:47;39.00;35.92;42.63;;
69616;Laerm;56822;52.516;4.708;2022-08-21T00:33:58;40.22;37.09;42.52;;
69616;Laerm;56822;52.516;4.708;2022-08-21T00:34:08;40.45;37.30;43.94;;
69616;Laerm;56822;52.516;4.708;2022-08-21T00:34:19;36.55;33.70;39.16;;
69616;Laerm;56822;52.516;4.708;2022-08-21T00:34:29;35.36;31.96;46.25;;
69616;Laerm;56822;52.516;4.708;2022-08-21T00:34:40;36.59;34.05;38.69;;
69616;Laerm;56822;52.516;4.708;2022-08-21T00:34:50;37.23;35.24;39.69;;
69616;Laerm;56822;52.516;4.708;2022-08-21T00:35:01;37.38;34.70;39.34;;
69616;Laerm;56822;52.516;4.708;2022-08-21T00:35:13;37.28;34.91;40.62;;
69616;Laerm;56822;52.516;4.708;2022-08-21T00:35:26;37.75;34.74;43.07;;
69616;Laerm;56822;52.516;4.708;2022-08-21T00:35:38;37.02;34.39;39.70;;
69616;Laerm;56822;52.516;4.708;2022-08-21T00:35:48;36.75;34.25;40.69;;
69616;Laerm;56822;52.516;4.708;2022-08-21T00:35:59;35.46;32.29;38.13;;
69616;Laerm;56822;52.516;4.708;2022-08-21T00:36:10;35.63;32.07;40.17;;
69616;Laerm;56822;52.516;4.708;2022-08-21T00:36:20;37.31;34.74;39.47;;
69616;Laerm;56822;52.516;4.708;2022-08-21T00:36:31;36.70;33.83;39.36;;
69616;Laerm;56822;52.516;4.708;2022-08-21T00:36:41;37.57;33.89;40.61;;
69616;Laerm;56822;52.516;4.708;2022-08-21T00:36:51;39.40;36.30;43.83;;
69616;Laerm;56822;52.516;4.708;2022-08-21T00:37:01;39.97;37.30;42.46;;
69616;Laerm;56822;52.516;4.708;2022-08-21T00:37:12;39.62;35.75;43.87;;
69616;Laerm;56822;52.516;4.708;2022-08-21T00:37:22;38.17;35.86;41.67;;
69616;Laerm;56822;52.516;4.708;2022-08-21T00:37:32;43.50;38.21;50.25;;
69616;Laerm;56822;52.516;4.708;2022-08-21T00:37:43;42.41;38.71;46.21;;
69616;Laerm;56822;52.516;4.708;2022-08-21T00:37:53;47.08;40.15;55.63;;
69616;Laerm;56822;52.516;4.708;2022-08-21T00:38:05;50.77;45.15;55.90;;
69616;Laerm;56822;52.516;4.708;2022-08-21T00:38:16;51.10;44.90;60.18;;
69616;Laerm;56822;52.516;4.708;2022-08-21T00:38:26;50.36;42.25;61.05;;
69616;Laerm;56822;52.516;4.708;2022-08-21T00:38:36;45.01;37.12;52.43;;
69616;Laerm;56822;52.516;4.708;2022-08-21T00:38:47;37.58;34.02;42.28;;
69616;Laerm;56822;52.516;4.708;2022-08-21T00:38:57;39.63;36.61;43.56;;
69616;Laerm;56822;52.516;4.708;2022-08-21T00:39:07;37.93;35.20;41.82;;
69616;Laerm;56822;52.516;4.708;2022-08-21T00:39:18;36.69;34.30;40.50;;
69616;Laerm;56822;52.516;4.708;2022-08-21T00:39:28;36.58;32.62;43.16;;
69616;Laerm;56822;52.516;4.708;2022-08-21T00:39:39;32.70;30.97;35.24;;
69616;Laerm;56822;52.516;4.708;2022-08-21T00:39:49;33.80;31.59;36.19;;
69616;Laerm;56822;52.516;4.708;2022-08-21T00:39:59;33.78;31.54;38.45;;
69616;Laerm;56822;52.516;4.708;2022-08-21T00:40:12;33.36;31.20;35.86;;
69616;Laerm;56822;52.516;4.708;2022-08-21T00:40:26;38.09;32.86;44.08;;
69616;Laerm;56822;52.516;4.708;2022-08-21T00:40:40;40.01;35.92;44.46;;
69616;Laerm;56822;52.516;4.708;2022-08-21T00:40:52;39.52;36.62;42.87;;
69616;Laerm;56822;52.516;4.708;2022-08-21T00:41:04;38.22;34.85;42.20;;
69616;Laerm;56822;52.516;4.708;2022-08-21T00:41:15;38.59;35.74;41.99;;
69616;Laerm;56822;52.516;4.708;2022-08-21T00:41:25;39.40;36.34;42.61;;
69616;Laerm;56822;52.516;4.708;2022-08-21T00:41:37;40.07;37.51;43.01;;
69616;Laerm;56822;52.516;4.708;2022-08-21T00:41:48;40.42;37.10;44.64;;
69616;Laerm;56822;52.516;4.708;2022-08-21T00:41:59;38.08;35.09;43.00;;
69616;Laerm;56822;52.516;4.708;2022-08-21T00:42:09;37.87;35.46;40.00;;
69616;Laerm;56822;52.516;4.708;2022-08-21T00:42:20;39.66;35.23;44.24;;
69616;Laerm;56822;52.516;4.708;2022-08-21T00:42:30;38.62;36.05;41.06;;
69616;Laerm;56822;52.516;4.708;2022-08-21T00:42:41;37.85;35.75;40.49;;
69616;Laerm;56822;52.516;4.708;2022-08-21T00:42:51;40.26;36.03;44.27;;
69616;Laerm;56822;52.516;4.708;2022-08-21T00:43:06;39.36;35.88;43.01;;
69616;Laerm;56822;52.516;4.708;2022-08-21T00:43:19;37.73;33.87;46.99;;
69616;Laerm;56822;52.516;4.708;2022-08-21T00:43:31;40.22;36.00;44.21;;
69616;Laerm;56822;52.516;4.708;2022-08-21T00:43:43;39.29;34.83;45.99;;
69616;Laerm;56822;52.516;4.708;2022-08-21T00:43:53;37.64;34.49;41.11;;
69616;Laerm;56822;52.516;4.708;2022-08-21T00:44:08;38.68;36.78;41.73;;
69616;Laerm;56822;52.516;4.708;2022-08-21T00:44:18;37.66;34.89;41.00;;
69616;Laerm;56822;52.516;4.708;2022-08-21T00:44:28;38.78;35.56;43.50;;
69616;Laerm;56822;52.516;4.708;2022-08-21T00:44:39;39.67;37.04;43.15;;
69616;Laerm;56822;52.516;4.708;2022-08-21T00:44:49;37.40;33.85;41.21;;
69616;Laerm;56822;52.516;4.708;2022-08-21T00:45:00;34.78;33.08;36.57;;
69616;Laerm;56822;52.516;4.708;2022-08-21T00:45:11;36.36;33.67;39.80;;
69616;Laerm;56822;52.516;4.708;2022-08-21T00:45:22;35.62;33.06;39.83;;
69616;Laerm;56822;52.516;4.708;2022-08-21T00:45:32;37.29;35.06;39.82;;
69616;Laerm;56822;52.516;4.708;2022-08-21T00:45:43;37.32;34.31;40.30;;
69616;Laerm;56822;52.516;4.708;2022-08-21T00:45:54;37.66;35.23;40.95;;
69616;Laerm;56822;52.516;4.708;2022-08-21T00:46:05;37.51;33.22;43.88;;
69616;Laerm;56822;52.516;4.708;2022-08-21T00:46:16;34.25;31.78;37.05;;
69616;Laerm;56822;52.516;4.708;2022-08-21T00:46:26;38.00;33.72;43.54;;
69616;Laerm;56822;52.516;4.708;2022-08-21T00:46:37;36.01;33.17;38.89;;
69616;Laerm;56822;52.516;4.708;2022-08-21T00:46:47;37.93;33.34;45.54;;
69616;Laerm;56822;52.516;4.708;2022-08-21T00:46:58;37.22;33.40;41.39;;
69616;Laerm;56822;52.516;4.708;2022-08-21T00:47:08;35.24;32.73;37.93;;
69616;Laerm;56822;52.516;4.708;2022-08-21T00:47:19;33.99;31.48;36.70;;
69616;Laerm;56822;52.516;4.708;2022-08-21T00:47:29;37.58;33.30;41.65;;
69616;Laerm;56822;52.516;4.708;2022-08-21T00:47:39;37.33;34.79;43.27;;
69616;Laerm;56822;52.516;4.708;2022-08-21T00:47:50;35.60;32.52;38.62;;
69616;Laerm;56822;52.516;4.708;2022-08-21T00:48:01;32.61;30.45;36.76;;
69616;Laerm;56822;52.516;4.708;2022-08-21T00:48:11;32.65;30.37;35.41;;
69616;Laerm;56822;52.516;4.708;2022-08-21T00:48:22;36.07;31.00;42.91;;
69616;Laerm;56822;52.516;4.708;2022-08-21T00:48:33;37.79;34.66;41.11;;
69616;Laerm;56822;52.516;4.708;2022-08-21T00:48:44;38.25;35.51;41.00;;
69616;Laerm;56822;52.516;4.708;2022-08-21T00:48:54;38.10;35.12;42.51;;
69616;Laerm;56822;52.516;4.708;2022-08-21T00:49:05;40.83;38.14;43.51;;
69616;Laerm;56822;52.516;4.708;2022-08-21T00:49:16;39.06;35.91;42.21;;
69616;Laerm;56822;52.516;4.708;2022-08-21T00:49:27;37.09;34.36;42.58;;
69616;Laerm;56822;52.516;4.708;2022-08-21T00:49:38;37.92;35.34;41.24;;
69616;Laerm;56822;52.516;4.708;2022-08-21T00:49:48;38.50;34.79;42.81;;
69616;Laerm;56822;52.516;4.708;2022-08-21T00:49:58;41.79;37.38;45.87;;
69616;Laerm;56822;52.516;4.708;2022-08-21T00:50:10;43.13;40.55;47.39;;
69616;Laerm;56822;52.516;4.708;2022-08-21T00:50:20;42.20;38.71;46.60;;
69616;Laerm;56822;52.516;4.708;2022-08-21T00:50:32;41.72;38.77;45.18;;
69616;Laerm;56822;52.516;4.708;2022-08-21T00:50:44;47.97;41.75;53.26;;
69616;Laerm;56822;52.516;4.708;2022-08-21T00:50:58;51.17;44.02;56.78;;
69616;Laerm;56822;52.516;4.708;2022-08-21T00:51:17;48.89;43.53;57.02;;
69616;Laerm;56822;52.516;4.708;2022-08-21T00:51:39;43.50;38.59;50.22;;
69616;Laerm;56822;52.516;4.708;2022-08-21T00:51:54;41.37;37.17;44.28;;
69616;Laerm;56822;52.516;4.708;2022-08-21T00:52:06;38.26;35.00;40.73;;
69616;Laerm;56822;52.516;4.708;2022-08-21T00:52:20;37.09;33.56;40.24;;
69616;Laerm;56822;52.516;4.708;2022-08-21T00:52:32;37.16;34.22;49.72;;
69616;Laerm;56822;52.516;4.708;2022-08-21T00:52:42;39.80;34.58;43.35;;
69616;Laerm;56822;52.516;4.708;2022-08-21T00:52:53;40.71;37.56;44.24;;
69616;Laerm;56822;52.516;4.708;2022-08-21T00:53:04;38.55;35.55;41.04;;
69616;Laerm;56822;52.516;4.708;2022-08-21T00:53:15;39.08;36.80;44.24;;
69616;Laerm;56822;52.516;4.708;2022-08-21T00:53:26;38.73;35.86;41.50;;
69616;Laerm;56822;52.516;4.708;2022-08-21T00:53:38;40.12;36.72;44.51;;
69616;Laerm;56822;52.516;4.708;2022-08-21T00:53:49;39.43;35.71;44.60;;
69616;Laerm;56822;52.516;4.708;2022-08-21T00:54:02;36.49;32.98;39.68;;
69616;Laerm;56822;52.516;4.708;2022-08-21T00:54:13;36.40;33.54;41.85;;
69616;Laerm;56822;52.516;4.708;2022-08-21T00:54:25;36.02;33.52;39.42;;
69616;Laerm;56822;52.516;4.708;2022-08-21T00:54:36;37.21;34.84;40.58;;
69616;Laerm;56822;52.516;4.708;2022-08-21T00:54:47;37.25;35.09;39.41;;
69616;Laerm;56822;52.516;4.708;2022-08-21T00:54:58;38.48;35.68;41.46;;
69616;Laerm;56822;52.516;4.708;2022-08-21T00:55:09;38.61;36.35;41.65;;
69616;Laerm;56822;52.516;4.708;2022-08-21T00:55:21;38.68;35.79;40.96;;
69616;Laerm;56822;52.516;4.708;2022-08-21T00:55:32;37.45;34.15;40.57;;
69616;Laerm;56822;52.516;4.708;2022-08-21T00:55:44;37.31;34.81;40.09;;
69616;Laerm;56822;52.516;4.708;2022-08-21T00:55:55;37.37;34.60;40.64;;
69616;Laerm;56822;52.516;4.708;2022-08-21T00:56:06;38.20;34.56;41.43;;
69616;Laerm;56822;52.516;4.708;2022-08-21T00:56:17;41.33;36.54;45.82;;
69616;Laerm;56822;52.516;4.708;2022-08-21T00:56:28;39.84;35.94;42.51;;
69616;Laerm;56822;52.516;4.708;2022-08-21T00:56:38;45.61;36.33;61.69;;
69616;Laerm;56822;52.516;4.708;2022-08-21T00:56:50;46.55;35.61;63.08;;
69616;Laerm;56822;52.516;4.708;2022-08-21T00:57:04;38.45;35.16;42.62;;
69616;Laerm;56822;52.516;4.708;2022-08-21T00:57:17;36.74;32.74;40.88;;
69616;Laerm;56822;52.516;4.708;2022-08-21T00:57:30;37.38;32.13;45.27;;
69616;Laerm;56822;52.516;4.708;2022-08-21T00:57:43;41.94;37.52;48.07;;
69616;Laerm;56822;52.516;4.708;2022-08-21T00:57:55;42.30;36.10;50.48;;
69616;Laerm;56822;52.516;4.708;2022-08-21T00:58:07;41.05;34.55;46.43;;
69616;Laerm;56822;52.516;4.708;2022-08-21T00:58:18;41.52;36.67;48.46;;
69616;Laerm;56822;52.516;4.708;2022-08-21T00:58:29;49.08;40.60;58.42;;
69616;Laerm;56822;52.516;4.708;2022-08-21T00:58:41;51.05;45.52;56.56;;
69616;Laerm;56822;52.516;4.708;2022-08-21T00:58:52;47.97;42.87;54.14;;
69616;Laerm;56822;52.516;4.708;2022-08-21T00:59:04;44.67;38.78;52.12;;
69616;Laerm;56822;52.516;4.708;2022-08-21T00:59:16;40.59;35.19;46.73;;
69616;Laerm;56822;52.516;4.708;2022-08-21T00:59:27;38.84;34.35;43.06;;
69616;Laerm;56822;52.516;4.708;2022-08-21T00:59:38;35.19;31.88;39.71;;
69616;Laerm;56822;52.516;4.708;2022-08-21T00:59:51;36.09;32.35;40.50;;
69616;Laerm;56822;52.516;4.708;2022-08-21T01:00:04;34.38;32.59;36.81;;
69616;Laerm;56822;52.516;4.708;2022-08-21T01:00:18;37.36;32.80;41.95;;
69616;Laerm;56822;52.516;4.708;2022-08-21T01:00:30;36.76;34.27;40.07;;
69616;Laerm;56822;52.516;4.708;2022-08-21T01:00:42;38.02;34.10;41.37;;
69616;Laerm;56822;52.516;4.708;2022-08-21T01:00:52;37.62;34.88;41.60;;
69616;Laerm;56822;52.516;4.708;2022-08-21T01:01:03;36.60;32.98;40.31;;
69616;Laerm;56822;52.516;4.708;2022-08-21T01:01:14;35.99;32.76;39.41;;
69616;Laerm;56822;52.516;4.708;2022-08-21T01:01:25;34.50;32.26;36.83;;
69616;Laerm;56822;52.516;4.708;2022-08-21T01:01:35;36.40;32.70;40.00;;